createdAt,value
2023-06-23T00:01:01.512Z,8.30
2023-06-23T00:03:29.067Z,8.70
2023-06-23T00:05:56.636Z,8.40
2023-06-23T00:08:24.408Z,8.10
2023-06-23T00:10:52.754Z,8.10
2023-06-23T00:13:21.166Z,8.80
2023-06-23T00:15:48.700Z,9.90
2023-06-23T00:18:16.860Z,10.10
2023-06-23T00:20:44.404Z,10.00
2023-06-23T00:23:12.041Z,9.20
2023-06-23T00:25:39.449Z,10.80
2023-06-23T00:28:08.139Z,9.90
2023-06-23T00:30:35.799Z,9.80
2023-06-23T00:33:04.656Z,9.40
2023-06-23T00:35:32.343Z,8.60
2023-06-23T00:38:00.623Z,9.00
2023-06-23T00:40:28.163Z,9.60
2023-06-23T00:42:55.937Z,9.40
2023-06-23T00:45:25.459Z,8.80
2023-06-23T00:47:53.045Z,7.90
2023-06-23T00:50:21.597Z,9.20
2023-06-23T00:52:51.983Z,8.60
2023-06-23T00:55:24.017Z,9.30
2023-06-23T00:57:52.267Z,9.60
2023-06-23T01:00:20.524Z,9.40
2023-06-23T01:02:56.226Z,8.90
2023-06-23T01:05:26.185Z,9.30
2023-06-23T01:07:59.069Z,9.80
2023-06-23T01:11:07.728Z,9.60
2023-06-23T01:13:39.045Z,9.60
2023-06-23T01:16:23.207Z,10.20
2023-06-23T01:18:54.685Z,10.70
2023-06-23T01:21:40.113Z,11.80
2023-06-23T01:24:32.434Z,9.80
2023-06-23T01:27:22.591Z,9.90
2023-06-23T01:29:51.520Z,9.60
2023-06-23T01:32:20.655Z,9.10
2023-06-23T01:34:51.016Z,10.10
2023-06-23T01:37:29.619Z,9.40
2023-06-23T01:40:04.297Z,8.40
2023-06-23T01:42:33.244Z,9.10
2023-06-23T01:45:00.921Z,9.30
2023-06-23T01:47:31.944Z,10.10
2023-06-23T01:49:59.713Z,9.30
2023-06-23T01:52:27.238Z,9.40
2023-06-23T01:54:54.778Z,9.50
2023-06-23T01:57:22.392Z,9.70
2023-06-23T01:59:49.948Z,8.70
2023-06-23T02:02:17.553Z,9.00
2023-06-23T02:04:45.965Z,8.80
2023-06-23T02:07:14.384Z,9.50
2023-06-23T02:09:44.789Z,9.10
2023-06-23T02:12:12.362Z,8.80
2023-06-23T02:14:40.306Z,9.90
2023-06-23T02:17:11.517Z,9.20
2023-06-23T02:19:46.997Z,8.80
2023-06-23T02:22:17.516Z,8.90
2023-06-23T02:24:46.638Z,8.70
2023-06-23T02:27:14.164Z,9.00
2023-06-23T02:29:42.031Z,9.30
2023-06-23T02:32:09.857Z,8.10
2023-06-23T02:34:39.366Z,8.30
2023-06-23T02:37:10.446Z,9.20
2023-06-23T02:39:43.140Z,9.30
2023-06-23T02:42:11.420Z,9.00
2023-06-23T02:44:40.202Z,8.90
2023-06-23T02:47:12.139Z,9.20
2023-06-23T02:49:39.698Z,8.40
2023-06-23T02:52:08.471Z,8.50
2023-06-23T02:54:39.284Z,8.40
2023-06-23T02:57:06.925Z,10.20
2023-06-23T02:59:34.478Z,9.00
2023-06-23T03:02:02.223Z,9.40
2023-06-23T03:04:31.816Z,9.20
2023-06-23T03:06:59.523Z,10.50
2023-06-23T03:09:27.798Z,9.80
2023-06-23T03:11:55.230Z,10.20
2023-06-23T03:14:22.936Z,9.70
2023-06-23T03:17:02.247Z,8.50
2023-06-23T03:19:45.014Z,9.00
2023-06-23T03:22:19.994Z,8.60
2023-06-23T03:24:53.834Z,8.10
2023-06-23T03:27:22.498Z,7.80
2023-06-23T03:29:55.440Z,7.90
2023-06-23T03:32:26.819Z,8.40
2023-06-23T03:34:57.741Z,8.60
2023-06-23T03:37:26.253Z,8.50
2023-06-23T03:40:00.339Z,8.00
2023-06-23T03:42:28.103Z,7.50
2023-06-23T03:44:56.112Z,7.90
2023-06-23T03:47:26.004Z,7.30
2023-06-23T03:49:56.298Z,7.50
2023-06-23T03:52:23.837Z,8.30
2023-06-23T03:54:51.607Z,7.40
2023-06-23T03:57:21.304Z,7.30
2023-06-23T03:59:49.893Z,7.90
2023-06-23T04:02:18.786Z,6.90
2023-06-23T04:04:46.511Z,6.80
2023-06-23T04:07:14.023Z,6.60
2023-06-23T04:09:42.499Z,6.80
2023-06-23T04:12:11.348Z,7.40
2023-06-23T04:14:38.957Z,6.60
2023-06-23T04:17:09.930Z,6.50
2023-06-23T04:19:37.970Z,6.60
2023-06-23T04:22:06.573Z,7.00
2023-06-23T04:24:34.188Z,7.60
2023-06-23T04:27:01.665Z,7.10
2023-06-23T04:29:29.408Z,6.60
2023-06-23T04:31:57.045Z,6.90
2023-06-23T04:34:24.754Z,6.40
2023-06-23T04:37:03.692Z,7.20
2023-06-23T04:39:37.245Z,7.00
2023-06-23T04:42:05.825Z,6.50
2023-06-23T04:44:34.076Z,6.40
2023-06-23T04:47:03.155Z,6.90
2023-06-23T04:49:30.782Z,6.00
2023-06-23T04:51:58.756Z,5.50
2023-06-23T04:54:35.697Z,6.00
2023-06-23T04:57:03.900Z,5.60
2023-06-23T04:59:33.942Z,5.60
2023-06-23T05:02:01.939Z,6.30
2023-06-23T05:04:31.344Z,6.00
2023-06-23T05:06:58.790Z,6.70
2023-06-23T05:09:26.448Z,6.30
2023-06-23T05:11:54.224Z,5.70
2023-06-23T05:14:21.710Z,5.40
2023-06-23T05:16:49.229Z,5.70
2023-06-23T05:19:16.730Z,6.00
2023-06-23T05:21:44.411Z,6.20
2023-06-23T05:24:13.583Z,6.00
2023-06-23T05:26:42.856Z,6.30
2023-06-23T05:29:11.282Z,5.80
2023-06-23T05:31:40.938Z,5.50
2023-06-23T05:34:09.814Z,6.00
2023-06-23T05:36:38.743Z,5.70
2023-06-23T05:39:06.421Z,5.90
2023-06-23T05:41:33.993Z,5.30
2023-06-23T05:44:01.617Z,5.80
2023-06-23T05:46:30.471Z,5.60
2023-06-23T05:49:03.568Z,6.80
